sensor_id;sensor_type;location;lat;lon;timestamp;P1;durP1;ratioP1;P2;durP2;ratioP2
66521;SDS011;53349;53.538;8.584;2023-05-03T07:49:16;25.10;;;3.53;;
66521;SDS011;53349;53.538;8.584;2023-05-03T07:51:42;29.80;;;3.80;;
66521;SDS011;53349;53.538;8.584;2023-05-03T07:54:07;11.30;;;1.60;;
66521;SDS011;53349;53.538;8.584;2023-05-03T07:56:33;12.18;;;1.77;;
66521;SDS011;53349;53.538;8.584;2023-05-03T07:58:59;13.30;;;1.60;;
66521;SDS011;53349;53.538;8.584;2023-05-03T08:01:24;9.03;;;1.60;;
66521;SDS011;53349;53.538;8.584;2023-05-03T08:03:50;10.87;;;1.70;;
66521;SDS011;53349;53.538;8.584;2023-05-03T08:06:16;9.68;;;1.55;;
66521;SDS011;53349;53.538;8.584;2023-05-03T08:08:41;6.75;;;1.55;;
66521;SDS011;53349;53.538;8.584;2023-05-03T08:11:07;30.10;;;3.67;;
66521;SDS011;53349;53.538;8.584;2023-05-03T08:13:33;21.10;;;2.58;;
66521;SDS011;53349;53.538;8.584;2023-05-03T08:15:58;31.87;;;3.37;;
66521;SDS011;53349;53.538;8.584;2023-05-03T08:18:26;25.73;;;3.80;;
66521;SDS011;53349;53.538;8.584;2023-05-03T08:20:51;26.17;;;2.43;;
66521;SDS011;53349;53.538;8.584;2023-05-03T08:23:17;18.33;;;2.60;;
66521;SDS011;53349;53.538;8.584;2023-05-03T08:25:42;21.43;;;3.00;;
66521;SDS011;53349;53.538;8.584;2023-05-03T08:28:08;9.73;;;2.10;;
66521;SDS011;53349;53.538;8.584;2023-05-03T08:30:33;152.73;;;15.13;;
66521;SDS011;53349;53.538;8.584;2023-05-03T08:32:59;130.10;;;12.13;;
66521;SDS011;53349;53.538;8.584;2023-05-03T08:35:28;161.43;;;13.35;;
66521;SDS011;53349;53.538;8.584;2023-05-03T08:37:55;67.38;;;6.80;;
66521;SDS011;53349;53.538;8.584;2023-05-03T08:40:20;144.98;;;12.13;;
66521;SDS011;53349;53.538;8.584;2023-05-03T08:42:49;130.30;;;13.37;;
66521;SDS011;53349;53.538;8.584;2023-05-03T08:45:15;98.30;;;7.82;;
66521;SDS011;53349;53.538;8.584;2023-05-03T08:47:41;58.80;;;5.80;;
66521;SDS011;53349;53.538;8.584;2023-05-03T08:50:07;24.02;;;4.15;;
66521;SDS011;53349;53.538;8.584;2023-05-03T08:52:33;43.30;;;4.32;;
66521;SDS011;53349;53.538;8.584;2023-05-03T08:55:00;26.30;;;3.67;;
66521;SDS011;53349;53.538;8.584;2023-05-03T08:57:27;28.85;;;3.17;;
66521;SDS011;53349;53.538;8.584;2023-05-03T08:59:57;14.55;;;2.10;;
66521;SDS011;53349;53.538;8.584;2023-05-03T09:02:23;23.20;;;3.03;;
66521;SDS011;53349;53.538;8.584;2023-05-03T09:04:48;11.90;;;1.93;;
66521;SDS011;53349;53.538;8.584;2023-05-03T09:07:13;13.52;;;2.03;;
66521;SDS011;53349;53.538;8.584;2023-05-03T09:09:39;7.68;;;1.60;;
66521;SDS011;53349;53.538;8.584;2023-05-03T09:12:04;6.70;;;1.60;;
66521;SDS011;53349;53.538;8.584;2023-05-03T09:14:40;6.20;;;1.20;;
66521;SDS011;53349;53.538;8.584;2023-05-03T09:17:13;4.82;;;1.40;;
66521;SDS011;53349;53.538;8.584;2023-05-03T09:19:52;5.85;;;1.40;;
66521;SDS011;53349;53.538;8.584;2023-05-03T09:22:20;6.32;;;1.63;;
66521;SDS011;53349;53.538;8.584;2023-05-03T09:24:49;9.73;;;1.60;;
66521;SDS011;53349;53.538;8.584;2023-05-03T09:27:19;6.57;;;1.75;;
66521;SDS011;53349;53.538;8.584;2023-05-03T09:29:44;9.82;;;1.88;;
66521;SDS011;53349;53.538;8.584;2023-05-03T09:32:10;4.03;;;1.30;;
66521;SDS011;53349;53.538;8.584;2023-05-03T09:34:35;7.90;;;1.60;;
66521;SDS011;53349;53.538;8.584;2023-05-03T09:37:00;5.03;;;1.47;;
66521;SDS011;53349;53.538;8.584;2023-05-03T09:39:27;10.33;;;1.40;;
66521;SDS011;53349;53.538;8.584;2023-05-03T09:41:55;6.43;;;1.50;;
66521;SDS011;53349;53.538;8.584;2023-05-03T09:47:08;5.47;;;1.40;;
66521;SDS011;53349;53.538;8.584;2023-05-03T09:49:33;7.22;;;1.60;;
66521;SDS011;53349;53.538;8.584;2023-05-03T09:52:00;5.40;;;1.37;;
66521;SDS011;53349;53.538;8.584;2023-05-03T09:54:26;9.68;;;2.10;;
66521;SDS011;53349;53.538;8.584;2023-05-03T09:56:53;8.57;;;1.50;;
66521;SDS011;53349;53.538;8.584;2023-05-03T09:59:19;5.93;;;1.40;;
66521;SDS011;53349;53.538;8.584;2023-05-03T10:01:46;4.93;;;1.57;;
66521;SDS011;53349;53.538;8.584;2023-05-03T10:04:13;3.53;;;1.20;;
66521;SDS011;53349;53.538;8.584;2023-05-03T10:06:42;5.60;;;1.40;;
66521;SDS011;53349;53.538;8.584;2023-05-03T10:09:13;5.30;;;1.50;;
66521;SDS011;53349;53.538;8.584;2023-05-03T10:11:52;4.47;;;1.35;;
66521;SDS011;53349;53.538;8.584;2023-05-03T10:14:19;7.47;;;1.80;;
66521;SDS011;53349;53.538;8.584;2023-05-03T10:16:46;6.55;;;1.35;;
66521;SDS011;53349;53.538;8.584;2023-05-03T10:19:22;3.78;;;1.35;;
66521;SDS011;53349;53.538;8.584;2023-05-03T10:22:05;5.78;;;1.20;;
66521;SDS011;53349;53.538;8.584;2023-05-03T10:24:34;4.28;;;1.50;;
66521;SDS011;53349;53.538;8.584;2023-05-03T10:27:00;5.72;;;1.58;;
66521;SDS011;53349;53.538;8.584;2023-05-03T10:31:57;3.58;;;1.35;;
66521;SDS011;53349;53.538;8.584;2023-05-03T10:34:23;5.70;;;1.80;;
66521;SDS011;53349;53.538;8.584;2023-05-03T10:36:51;5.80;;;1.83;;
66521;SDS011;53349;53.538;8.584;2023-05-03T10:39:17;4.05;;;1.40;;
66521;SDS011;53349;53.538;8.584;2023-05-03T10:41:55;8.33;;;1.73;;
66521;SDS011;53349;53.538;8.584;2023-05-03T10:44:27;4.65;;;1.40;;
66521;SDS011;53349;53.538;8.584;2023-05-03T10:47:21;5.28;;;1.60;;
66521;SDS011;53349;53.538;8.584;2023-05-03T10:55:10;4.77;;;1.50;;
66521;SDS011;53349;53.538;8.584;2023-05-03T10:57:36;6.63;;;1.67;;
66521;SDS011;53349;53.538;8.584;2023-05-03T11:00:04;5.07;;;1.70;;
66521;SDS011;53349;53.538;8.584;2023-05-03T11:03:02;4.80;;;1.40;;
66521;SDS011;53349;53.538;8.584;2023-05-03T11:05:50;8.27;;;1.67;;
66521;SDS011;53349;53.538;8.584;2023-05-03T11:08:20;7.70;;;1.80;;
66521;SDS011;53349;53.538;8.584;2023-05-03T12:14:09;4.93;;;1.67;;
66521;SDS011;53349;53.538;8.584;2023-05-03T12:16:49;4.78;;;1.60;;
66521;SDS011;53349;53.538;8.584;2023-05-03T12:19:28;4.40;;;1.75;;
66521;SDS011;53349;53.538;8.584;2023-05-03T12:21:54;6.53;;;1.60;;
66521;SDS011;53349;53.538;8.584;2023-05-03T12:24:20;4.20;;;1.40;;
66521;SDS011;53349;53.538;8.584;2023-05-03T12:26:48;10.07;;;1.90;;
66521;SDS011;53349;53.538;8.584;2023-05-03T12:29:14;7.88;;;2.03;;
66521;SDS011;53349;53.538;8.584;2023-05-03T12:31:39;6.63;;;1.70;;
66521;SDS011;53349;53.538;8.584;2023-05-03T12:34:05;4.63;;;1.67;;
66521;SDS011;53349;53.538;8.584;2023-05-03T12:36:32;5.95;;;1.85;;
66521;SDS011;53349;53.538;8.584;2023-05-03T12:38:58;6.38;;;1.88;;
66521;SDS011;53349;53.538;8.584;2023-05-03T12:41:24;5.70;;;1.80;;
66521;SDS011;53349;53.538;8.584;2023-05-03T12:43:49;5.88;;;1.73;;
66521;SDS011;53349;53.538;8.584;2023-05-03T12:46:15;4.50;;;2.20;;
66521;SDS011;53349;53.538;8.584;2023-05-03T12:48:41;4.87;;;1.87;;
66521;SDS011;53349;53.538;8.584;2023-05-03T12:51:06;4.03;;;1.70;;
66521;SDS011;53349;53.538;8.584;2023-05-03T12:53:31;5.37;;;2.00;;
66521;SDS011;53349;53.538;8.584;2023-05-03T12:55:56;6.00;;;1.90;;
66521;SDS011;53349;53.538;8.584;2023-05-03T12:58:22;7.07;;;2.20;;
66521;SDS011;53349;53.538;8.584;2023-05-03T13:00:47;5.53;;;2.43;;
66521;SDS011;53349;53.538;8.584;2023-05-03T13:03:13;5.73;;;2.30;;
66521;SDS011;53349;53.538;8.584;2023-05-03T13:05:38;6.97;;;2.17;;
66521;SDS011;53349;53.538;8.584;2023-05-03T13:08:03;7.50;;;2.10;;
66521;SDS011;53349;53.538;8.584;2023-05-03T13:10:30;8.95;;;2.47;;
66521;SDS011;53349;53.538;8.584;2023-05-03T13:13:00;11.40;;;2.33;;
66521;SDS011;53349;53.538;8.584;2023-05-03T13:15:28;14.38;;;2.30;;
66521;SDS011;53349;53.538;8.584;2023-05-03T13:17:54;14.50;;;2.80;;
66521;SDS011;53349;53.538;8.584;2023-05-03T13:20:19;17.03;;;2.80;;
66521;SDS011;53349;53.538;8.584;2023-05-03T13:22:46;22.00;;;2.70;;
66521;SDS011;53349;53.538;8.584;2023-05-03T13:25:12;20.17;;;2.80;;
66521;SDS011;53349;53.538;8.584;2023-05-03T13:27:38;12.73;;;2.72;;
66521;SDS011;53349;53.538;8.584;2023-05-03T13:30:06;20.97;;;2.40;;
66521;SDS011;53349;53.538;8.584;2023-05-03T13:32:32;15.18;;;1.95;;
66521;SDS011;53349;53.538;8.584;2023-05-03T13:34:58;5.50;;;1.80;;
66521;SDS011;53349;53.538;8.584;2023-05-03T13:37:24;12.75;;;1.98;;
66521;SDS011;53349;53.538;8.584;2023-05-03T13:39:52;8.65;;;1.92;;
66521;SDS011;53349;53.538;8.584;2023-05-03T13:42:18;9.10;;;2.00;;
66521;SDS011;53349;53.538;8.584;2023-05-03T13:44:44;6.90;;;1.90;;
66521;SDS011;53349;53.538;8.584;2023-05-03T13:47:09;10.30;;;2.17;;
66521;SDS011;53349;53.538;8.584;2023-05-03T13:49:34;4.50;;;1.57;;
66521;SDS011;53349;53.538;8.584;2023-05-03T13:52:00;7.97;;;1.80;;
66521;SDS011;53349;53.538;8.584;2023-05-03T13:54:25;4.53;;;1.50;;
66521;SDS011;53349;53.538;8.584;2023-05-03T13:56:50;5.97;;;1.70;;
66521;SDS011;53349;53.538;8.584;2023-05-03T13:59:15;4.90;;;1.33;;
66521;SDS011;53349;53.538;8.584;2023-05-03T17:26:12;7.13;;;2.05;;
66521;SDS011;53349;53.538;8.584;2023-05-03T17:28:38;5.03;;;1.90;;
66521;SDS011;53349;53.538;8.584;2023-05-03T17:31:05;5.82;;;1.90;;
66521;SDS011;53349;53.538;8.584;2023-05-03T17:33:31;6.72;;;2.08;;
66521;SDS011;53349;53.538;8.584;2023-05-03T17:35:57;5.63;;;2.25;;
66521;SDS011;53349;53.538;8.584;2023-05-03T17:38:23;8.30;;;1.92;;
66521;SDS011;53349;53.538;8.584;2023-05-03T17:40:48;9.03;;;2.03;;
66521;SDS011;53349;53.538;8.584;2023-05-03T17:43:13;4.63;;;1.93;;
66521;SDS011;53349;53.538;8.584;2023-05-03T17:45:40;7.00;;;1.85;;
66521;SDS011;53349;53.538;8.584;2023-05-03T17:48:05;6.20;;;2.07;;
66521;SDS011;53349;53.538;8.584;2023-05-03T17:50:31;7.00;;;2.17;;
66521;SDS011;53349;53.538;8.584;2023-05-03T17:52:57;6.57;;;2.10;;
66521;SDS011;53349;53.538;8.584;2023-05-03T17:55:22;5.93;;;1.90;;
66521;SDS011;53349;53.538;8.584;2023-05-03T17:57:47;5.53;;;2.13;;
66521;SDS011;53349;53.538;8.584;2023-05-03T18:00:14;6.60;;;1.92;;
66521;SDS011;53349;53.538;8.584;2023-05-03T18:02:41;4.68;;;1.98;;
66521;SDS011;53349;53.538;8.584;2023-05-03T18:05:06;6.47;;;1.80;;
66521;SDS011;53349;53.538;8.584;2023-05-03T18:07:32;4.80;;;1.70;;
66521;SDS011;53349;53.538;8.584;2023-05-03T18:10:01;6.35;;;2.30;;
66521;SDS011;53349;53.538;8.584;2023-05-03T18:12:27;4.87;;;2.10;;
66521;SDS011;53349;53.538;8.584;2023-05-03T18:14:53;6.90;;;2.40;;
66521;SDS011;53349;53.538;8.584;2023-05-03T18:17:18;5.22;;;2.30;;
66521;SDS011;53349;53.538;8.584;2023-05-03T18:19:44;5.80;;;2.10;;
66521;SDS011;53349;53.538;8.584;2023-05-03T18:22:09;9.93;;;2.13;;
66521;SDS011;53349;53.538;8.584;2023-05-03T18:24:35;5.83;;;1.93;;
66521;SDS011;53349;53.538;8.584;2023-05-03T18:27:00;4.37;;;2.00;;
66521;SDS011;53349;53.538;8.584;2023-05-03T18:29:26;4.87;;;1.87;;
66521;SDS011;53349;53.538;8.584;2023-05-03T18:31:51;5.28;;;2.05;;
66521;SDS011;53349;53.538;8.584;2023-05-03T18:34:19;7.32;;;2.20;;
66521;SDS011;53349;53.538;8.584;2023-05-03T18:36:45;6.45;;;2.22;;
66521;SDS011;53349;53.538;8.584;2023-05-03T18:39:10;5.93;;;2.03;;
66521;SDS011;53349;53.538;8.584;2023-05-03T18:41:36;5.20;;;2.07;;
66521;SDS011;53349;53.538;8.584;2023-05-03T18:44:02;6.73;;;2.40;;
66521;SDS011;53349;53.538;8.584;2023-05-03T18:46:28;7.13;;;2.28;;
66521;SDS011;53349;53.538;8.584;2023-05-03T18:48:54;6.80;;;2.13;;
66521;SDS011;53349;53.538;8.584;2023-05-03T18:51:20;6.00;;;2.23;;
66521;SDS011;53349;53.538;8.584;2023-05-03T18:53:45;6.72;;;2.00;;
66521;SDS011;53349;53.538;8.584;2023-05-03T18:56:11;5.77;;;2.20;;
66521;SDS011;53349;53.538;8.584;2023-05-03T18:58:36;5.53;;;2.23;;
66521;SDS011;53349;53.538;8.584;2023-05-03T19:01:02;7.07;;;2.03;;
66521;SDS011;53349;53.538;8.584;2023-05-03T19:03:27;6.60;;;1.90;;
66521;SDS011;53349;53.538;8.584;2023-05-03T19:05:54;8.98;;;2.80;;
66521;SDS011;53349;53.538;8.584;2023-05-03T19:08:23;8.65;;;3.05;;
66521;SDS011;53349;53.538;8.584;2023-05-03T19:10:48;6.57;;;2.45;;
66521;SDS011;53349;53.538;8.584;2023-05-03T19:13:14;6.17;;;2.00;;
66521;SDS011;53349;53.538;8.584;2023-05-03T19:15:39;4.33;;;2.30;;
66521;SDS011;53349;53.538;8.584;2023-05-03T19:18:04;7.33;;;2.20;;
66521;SDS011;53349;53.538;8.584;2023-05-03T19:20:31;7.60;;;2.63;;
66521;SDS011;53349;53.538;8.584;2023-05-03T19:22:56;4.17;;;2.20;;
66521;SDS011;53349;53.538;8.584;2023-05-03T19:25:26;7.43;;;2.28;;
66521;SDS011;53349;53.538;8.584;2023-05-03T19:27:51;4.97;;;1.97;;
66521;SDS011;53349;53.538;8.584;2023-05-03T19:30:17;8.57;;;2.60;;
66521;SDS011;53349;53.538;8.584;2023-05-03T19:32:42;4.83;;;2.23;;
66521;SDS011;53349;53.538;8.584;2023-05-03T19:35:07;8.73;;;2.50;;
66521;SDS011;53349;53.538;8.584;2023-05-03T19:37:33;7.50;;;2.28;;
66521;SDS011;53349;53.538;8.584;2023-05-03T19:39:58;6.50;;;2.38;;
66521;SDS011;53349;53.538;8.584;2023-05-03T19:42:26;7.30;;;2.83;;
66521;SDS011;53349;53.538;8.584;2023-05-03T19:44:52;4.93;;;2.10;;
66521;SDS011;53349;53.538;8.584;2023-05-03T19:47:17;4.93;;;2.10;;
66521;SDS011;53349;53.538;8.584;2023-05-03T19:49:42;6.32;;;2.50;;
66521;SDS011;53349;53.538;8.584;2023-05-03T19:52:08;4.67;;;2.03;;
66521;SDS011;53349;53.538;8.584;2023-05-03T19:54:36;5.65;;;1.90;;
66521;SDS011;53349;53.538;8.584;2023-05-03T19:57:02;7.87;;;2.60;;
66521;SDS011;53349;53.538;8.584;2023-05-03T19:59:31;5.55;;;2.50;;
66521;SDS011;53349;53.538;8.584;2023-05-03T20:01:57;5.97;;;2.20;;
66521;SDS011;53349;53.538;8.584;2023-05-03T20:04:22;5.43;;;2.30;;
66521;SDS011;53349;53.538;8.584;2023-05-03T20:06:48;5.00;;;2.33;;
66521;SDS011;53349;53.538;8.584;2023-05-03T20:09:13;6.03;;;2.07;;
66521;SDS011;53349;53.538;8.584;2023-05-03T20:11:39;9.18;;;2.40;;
66521;SDS011;53349;53.538;8.584;2023-05-03T20:14:05;8.02;;;2.45;;
66521;SDS011;53349;53.538;8.584;2023-05-03T20:16:31;7.75;;;2.22;;
66521;SDS011;53349;53.538;8.584;2023-05-03T20:18:57;6.10;;;2.40;;
66521;SDS011;53349;53.538;8.584;2023-05-03T20:21:27;7.10;;;2.40;;
66521;SDS011;53349;53.538;8.584;2023-05-03T20:23:52;6.93;;;2.60;;
66521;SDS011;53349;53.538;8.584;2023-05-03T20:26:17;7.53;;;2.80;;
66521;SDS011;53349;53.538;8.584;2023-05-03T20:28:43;7.60;;;2.60;;
66521;SDS011;53349;53.538;8.584;2023-05-03T20:31:10;7.20;;;2.70;;
66521;SDS011;53349;53.538;8.584;2023-05-03T20:33:35;11.67;;;2.90;;
66521;SDS011;53349;53.538;8.584;2023-05-03T20:36:02;7.67;;;2.07;;
66521;SDS011;53349;53.538;8.584;2023-05-03T20:38:27;6.75;;;2.30;;
66521;SDS011;53349;53.538;8.584;2023-05-03T20:40:52;6.20;;;2.43;;
66521;SDS011;53349;53.538;8.584;2023-05-03T20:43:19;6.90;;;2.80;;
66521;SDS011;53349;53.538;8.584;2023-05-03T20:45:45;6.45;;;2.33;;
66521;SDS011;53349;53.538;8.584;2023-05-03T20:48:11;6.00;;;2.40;;
66521;SDS011;53349;53.538;8.584;2023-05-03T20:50:37;6.87;;;2.50;;
66521;SDS011;53349;53.538;8.584;2023-05-03T20:53:02;7.68;;;2.38;;
66521;SDS011;53349;53.538;8.584;2023-05-03T20:55:28;7.07;;;2.72;;
66521;SDS011;53349;53.538;8.584;2023-05-03T20:57:54;10.23;;;2.60;;
66521;SDS011;53349;53.538;8.584;2023-05-03T21:00:19;7.13;;;2.42;;
66521;SDS011;53349;53.538;8.584;2023-05-03T21:02:44;6.63;;;2.42;;
66521;SDS011;53349;53.538;8.584;2023-05-03T21:05:10;8.23;;;2.73;;
66521;SDS011;53349;53.538;8.584;2023-05-03T21:07:36;5.30;;;2.60;;
66521;SDS011;53349;53.538;8.584;2023-05-03T21:10:02;8.33;;;2.63;;
66521;SDS011;53349;53.538;8.584;2023-05-03T21:12:27;5.50;;;2.60;;
66521;SDS011;53349;53.538;8.584;2023-05-03T21:14:53;6.60;;;2.73;;
66521;SDS011;53349;53.538;8.584;2023-05-03T21:17:18;7.13;;;2.73;;
66521;SDS011;53349;53.538;8.584;2023-05-03T21:19:44;5.83;;;2.83;;
66521;SDS011;53349;53.538;8.584;2023-05-03T21:22:09;5.53;;;2.58;;
66521;SDS011;53349;53.538;8.584;2023-05-03T21:24:34;9.57;;;3.33;;
66521;SDS011;53349;53.538;8.584;2023-05-03T21:27:03;7.35;;;2.88;;
66521;SDS011;53349;53.538;8.584;2023-05-03T21:29:28;9.70;;;3.37;;
66521;SDS011;53349;53.538;8.584;2023-05-03T21:31:54;10.07;;;3.13;;
66521;SDS011;53349;53.538;8.584;2023-05-03T21:34:19;7.97;;;2.80;;
66521;SDS011;53349;53.538;8.584;2023-05-03T21:36:45;7.33;;;2.70;;
66521;SDS011;53349;53.538;8.584;2023-05-03T21:39:10;8.73;;;2.80;;
66521;SDS011;53349;53.538;8.584;2023-05-03T21:41:36;9.32;;;2.80;;
66521;SDS011;53349;53.538;8.584;2023-05-03T21:44:02;8.57;;;2.95;;
66521;SDS011;53349;53.538;8.584;2023-05-03T21:46:28;8.88;;;3.10;;
66521;SDS011;53349;53.538;8.584;2023-05-03T21:48:53;7.70;;;3.10;;
66521;SDS011;53349;53.538;8.584;2023-05-03T21:51:20;7.60;;;2.80;;
66521;SDS011;53349;53.538;8.584;2023-05-03T21:53:46;10.35;;;3.03;;
66521;SDS011;53349;53.538;8.584;2023-05-03T21:56:13;7.75;;;3.10;;
66521;SDS011;53349;53.538;8.584;2023-05-03T21:58:44;7.90;;;2.88;;
66521;SDS011;53349;53.538;8.584;2023-05-03T22:01:10;8.27;;;2.53;;
66521;SDS011;53349;53.538;8.584;2023-05-03T22:03:36;8.93;;;3.10;;
66521;SDS011;53349;53.538;8.584;2023-05-03T22:06:05;10.25;;;3.38;;
66521;SDS011;53349;53.538;8.584;2023-05-03T22:08:32;7.15;;;3.03;;
66521;SDS011;53349;53.538;8.584;2023-05-03T22:11:04;7.40;;;2.80;;
66521;SDS011;53349;53.538;8.584;2023-05-03T22:13:31;8.30;;;3.60;;
66521;SDS011;53349;53.538;8.584;2023-05-03T22:16:06;8.73;;;4.13;;
66521;SDS011;53349;53.538;8.584;2023-05-03T22:18:35;6.78;;;3.22;;
66521;SDS011;53349;53.538;8.584;2023-05-03T22:21:02;8.35;;;2.92;;
66521;SDS011;53349;53.538;8.584;2023-05-03T22:23:29;9.18;;;3.78;;
66521;SDS011;53349;53.538;8.584;2023-05-03T22:25:56;19.25;;;5.20;;
66521;SDS011;53349;53.538;8.584;2023-05-03T22:28:23;9.90;;;3.80;;
66521;SDS011;53349;53.538;8.584;2023-05-03T22:30:49;11.23;;;3.10;;
66521;SDS011;53349;53.538;8.584;2023-05-03T22:33:14;12.03;;;4.00;;
66521;SDS011;53349;53.538;8.584;2023-05-03T22:35:41;10.05;;;3.17;;
66521;SDS011;53349;53.538;8.584;2023-05-03T22:38:07;10.10;;;3.13;;
66521;SDS011;53349;53.538;8.584;2023-05-03T22:40:33;8.57;;;4.30;;
66521;SDS011;53349;53.538;8.584;2023-05-03T22:42:59;7.63;;;3.33;;
66521;SDS011;53349;53.538;8.584;2023-05-03T22:45:26;10.32;;;2.97;;
66521;SDS011;53349;53.538;8.584;2023-05-03T22:47:51;8.05;;;2.55;;
66521;SDS011;53349;53.538;8.584;2023-05-03T22:50:17;7.67;;;3.00;;
66521;SDS011;53349;53.538;8.584;2023-05-03T22:52:42;9.77;;;3.23;;
66521;SDS011;53349;53.538;8.584;2023-05-03T22:55:08;7.33;;;3.07;;
66521;SDS011;53349;53.538;8.584;2023-05-03T22:57:34;10.35;;;3.50;;
66521;SDS011;53349;53.538;8.584;2023-05-03T22:59:59;11.55;;;4.88;;
66521;SDS011;53349;53.538;8.584;2023-05-03T23:02:25;10.50;;;3.70;;
66521;SDS011;53349;53.538;8.584;2023-05-03T23:04:50;9.07;;;3.67;;
66521;SDS011;53349;53.538;8.584;2023-05-03T23:07:17;9.50;;;3.58;;
66521;SDS011;53349;53.538;8.584;2023-05-03T23:09:45;6.95;;;3.13;;
66521;SDS011;53349;53.538;8.584;2023-05-03T23:12:11;9.43;;;3.10;;
66521;SDS011;53349;53.538;8.584;2023-05-03T23:14:37;7.88;;;3.10;;
66521;SDS011;53349;53.538;8.584;2023-05-03T23:17:04;8.40;;;2.97;;
66521;SDS011;53349;53.538;8.584;2023-05-03T23:19:29;7.55;;;2.90;;
66521;SDS011;53349;53.538;8.584;2023-05-03T23:21:55;9.90;;;2.85;;
66521;SDS011;53349;53.538;8.584;2023-05-03T23:24:22;8.68;;;3.15;;
66521;SDS011;53349;53.538;8.584;2023-05-03T23:26:48;8.67;;;3.03;;
66521;SDS011;53349;53.538;8.584;2023-05-03T23:29:14;13.32;;;3.25;;
66521;SDS011;53349;53.538;8.584;2023-05-03T23:31:41;8.07;;;3.07;;
66521;SDS011;53349;53.538;8.584;2023-05-03T23:34:07;7.82;;;2.95;;
66521;SDS011;53349;53.538;8.584;2023-05-03T23:36:32;10.40;;;3.45;;
66521;SDS011;53349;53.538;8.584;2023-05-03T23:38:58;6.57;;;2.78;;
66521;SDS011;53349;53.538;8.584;2023-05-03T23:41:23;11.73;;;3.20;;
66521;SDS011;53349;53.538;8.584;2023-05-03T23:43:49;8.45;;;2.80;;
66521;SDS011;53349;53.538;8.584;2023-05-03T23:46:17;7.63;;;2.88;;
66521;SDS011;53349;53.538;8.584;2023-05-03T23:48:43;8.32;;;2.95;;
66521;SDS011;53349;53.538;8.584;2023-05-03T23:51:08;6.70;;;3.03;;
66521;SDS011;53349;53.538;8.584;2023-05-03T23:53:33;9.83;;;3.73;;
66521;SDS011;53349;53.538;8.584;2023-05-03T23:55:59;9.23;;;3.07;;
66521;SDS011;53349;53.538;8.584;2023-05-03T23:58:24;8.63;;;2.95;;
